createdAt,value
2017-08-09T00:02:02.144Z,4.50
2017-08-09T00:04:30.524Z,4.17
2017-08-09T00:06:58.843Z,4.20
2017-08-09T00:09:27.202Z,4.10
2017-08-09T00:11:55.510Z,3.67
2017-08-09T00:14:23.908Z,4.30
2017-08-09T00:16:52.183Z,3.30
2017-08-09T00:19:20.448Z,3.03
2017-08-09T00:21:48.722Z,2.60
2017-08-09T00:24:17.027Z,3.40
2017-08-09T00:26:45.296Z,2.73
2017-08-09T00:29:13.560Z,2.50
2017-08-09T00:31:41.827Z,2.47
2017-08-09T00:34:10.994Z,1.73
2017-08-09T00:36:39.273Z,2.60
2017-08-09T00:39:07.552Z,2.47
2017-08-09T00:41:35.987Z,1.70
2017-08-09T00:44:04.239Z,1.97
2017-08-09T00:46:32.497Z,2.53
2017-08-09T00:49:00.768Z,1.70
2017-08-09T00:51:29.463Z,1.83
2017-08-09T00:53:57.764Z,2.50
2017-08-09T00:56:26.788Z,2.00
2017-08-09T00:58:55.106Z,1.43
2017-08-09T01:01:23.368Z,1.93
2017-08-09T01:03:51.700Z,1.80
2017-08-09T01:06:20.342Z,2.27
2017-08-09T01:08:49.583Z,1.87
2017-08-09T01:11:18.236Z,1.87
2017-08-09T01:13:48.011Z,1.80
2017-08-09T01:16:16.661Z,1.90
2017-08-09T01:18:45.244Z,2.07
2017-08-09T01:21:13.595Z,2.30
2017-08-09T01:23:41.906Z,2.23
2017-08-09T01:26:10.432Z,2.10
2017-08-09T01:28:40.488Z,2.00
2017-08-09T01:31:08.944Z,1.97
2017-08-09T01:33:37.261Z,1.97
2017-08-09T01:36:07.084Z,1.90
2017-08-09T01:38:37.666Z,2.10
2017-08-09T01:41:06.397Z,1.90
2017-08-09T01:43:35.041Z,2.40
2017-08-09T01:46:03.995Z,2.10
2017-08-09T01:48:34.121Z,2.30
2017-08-09T01:51:02.758Z,1.80
2017-08-09T01:53:32.560Z,1.80
2017-08-09T01:56:00.895Z,2.60
2017-08-09T01:58:29.217Z,2.10
2017-08-09T02:00:58.712Z,2.40
2017-08-09T02:03:27.900Z,5.40
2017-08-09T02:05:56.616Z,2.60
2017-08-09T02:08:24.982Z,2.27
2017-08-09T02:10:53.261Z,2.27
2017-08-09T02:13:21.587Z,2.43
2017-08-09T02:15:49.826Z,2.47
2017-08-09T02:18:19.142Z,3.40
2017-08-09T02:20:47.464Z,2.53
2017-08-09T02:23:16.206Z,2.97
2017-08-09T02:25:44.517Z,2.43
2017-08-09T02:28:12.797Z,2.70
2017-08-09T02:30:41.182Z,2.90
2017-08-09T02:33:09.503Z,2.93
2017-08-09T02:35:37.936Z,2.60
2017-08-09T02:38:06.411Z,2.50
2017-08-09T02:40:34.798Z,2.90
2017-08-09T02:43:04.396Z,3.20
2017-08-09T02:45:32.694Z,2.83
2017-08-09T02:48:00.986Z,3.00
2017-08-09T02:50:29.340Z,3.20
2017-08-09T02:52:57.613Z,2.70
2017-08-09T02:55:25.942Z,3.00
2017-08-09T02:57:54.257Z,3.03
2017-08-09T03:00:22.649Z,3.20
2017-08-09T03:02:51.306Z,3.20
2017-08-09T03:05:19.620Z,2.93
2017-08-09T03:07:47.884Z,3.50
2017-08-09T03:10:16.209Z,3.20
2017-08-09T03:12:45.320Z,3.37
2017-08-09T03:15:13.621Z,4.00
2017-08-09T03:17:41.938Z,3.63
2017-08-09T03:20:12.257Z,4.47
2017-08-09T03:22:40.575Z,2.80
2017-08-09T03:25:09.610Z,3.27
2017-08-09T03:27:37.853Z,3.70
2017-08-09T03:30:07.032Z,4.10
2017-08-09T03:32:35.393Z,4.43
2017-08-09T03:35:03.694Z,3.97
2017-08-09T03:37:33.067Z,2.73
2017-08-09T03:40:02.000Z,3.20
2017-08-09T03:42:31.943Z,3.77
2017-08-09T03:45:00.273Z,3.77
2017-08-09T03:47:28.517Z,4.37
2017-08-09T03:49:57.259Z,4.93
2017-08-09T03:52:25.588Z,4.47
2017-08-09T03:54:53.903Z,3.77
2017-08-09T03:57:22.190Z,4.70
2017-08-09T03:59:50.494Z,10.20
2017-08-09T04:02:18.797Z,7.87
2017-08-09T04:04:47.107Z,6.00
2017-08-09T04:07:15.439Z,5.40
2017-08-09T04:09:43.858Z,4.73
2017-08-09T04:12:12.963Z,4.03
2017-08-09T04:14:41.311Z,5.57
2017-08-09T04:17:09.647Z,4.87
2017-08-09T04:19:38.059Z,6.77
2017-08-09T04:22:06.812Z,5.03
2017-08-09T04:24:35.395Z,4.80
2017-08-09T04:27:03.621Z,6.10
2017-08-09T04:29:33.193Z,5.27
2017-08-09T04:32:01.675Z,5.10
2017-08-09T04:34:30.261Z,5.23
2017-08-09T04:36:58.596Z,5.33
2017-08-09T04:39:26.833Z,5.70
2017-08-09T04:41:55.126Z,4.83
2017-08-09T04:44:23.869Z,4.80
2017-08-09T04:46:52.171Z,5.10
2017-08-09T04:49:20.478Z,5.03
2017-08-09T04:51:48.834Z,5.70
2017-08-09T04:54:17.115Z,4.30
2017-08-09T04:56:45.395Z,5.33
2017-08-09T04:59:14.295Z,5.00
2017-08-09T05:01:42.690Z,5.30
2017-08-09T05:04:10.933Z,5.03
2017-08-09T05:06:39.260Z,5.43
2017-08-09T05:09:07.516Z,5.00
2017-08-09T05:11:35.815Z,5.13
2017-08-09T05:14:04.152Z,5.77
2017-08-09T05:16:32.422Z,6.27
2017-08-09T05:19:00.688Z,5.50
2017-08-09T05:21:29.378Z,5.40
2017-08-09T05:23:57.632Z,5.30
2017-08-09T05:26:25.950Z,5.50
2017-08-09T05:28:54.313Z,5.93
2017-08-09T05:31:22.644Z,5.07
2017-08-09T05:33:50.977Z,4.97
2017-08-09T05:36:19.388Z,5.80
2017-08-09T05:38:49.509Z,5.70
2017-08-09T05:41:17.788Z,5.77
2017-08-09T05:43:46.125Z,5.77
2017-08-09T05:46:14.412Z,4.90
2017-08-09T05:48:42.683Z,4.60
2017-08-09T05:51:10.946Z,6.07
2017-08-09T05:53:39.594Z,5.20
2017-08-09T05:56:07.907Z,5.23
2017-08-09T05:58:36.289Z,5.03
2017-08-09T06:01:06.192Z,5.03
2017-08-09T06:03:34.545Z,6.40
2017-08-09T06:06:03.454Z,6.10
2017-08-09T06:08:32.101Z,5.23
2017-08-09T06:11:00.363Z,7.33
2017-08-09T06:13:28.658Z,4.93
2017-08-09T06:15:56.890Z,4.70
2017-08-09T06:18:26.159Z,4.97
2017-08-09T06:20:54.420Z,6.10
2017-08-09T06:23:22.681Z,7.13
2017-08-09T06:25:50.939Z,6.73
2017-08-09T06:28:19.355Z,5.90
2017-08-09T06:30:47.604Z,5.13
2017-08-09T06:33:16.855Z,6.00
2017-08-09T06:35:45.167Z,5.20
2017-08-09T06:38:13.408Z,5.73
2017-08-09T06:40:41.662Z,4.70
2017-08-09T06:43:09.904Z,4.83
2017-08-09T06:45:38.398Z,4.83
2017-08-09T06:48:06.656Z,5.27
2017-08-09T06:50:34.924Z,4.37
2017-08-09T06:53:03.892Z,4.47
2017-08-09T06:55:32.153Z,5.00
2017-08-09T06:58:00.494Z,5.73
2017-08-09T07:00:28.705Z,5.67
2017-08-09T07:02:56.993Z,3.40
2017-08-09T07:05:25.219Z,5.43
2017-08-09T07:07:53.468Z,5.13
2017-08-09T07:10:21.781Z,3.20
2017-08-09T07:12:50.121Z,3.63
2017-08-09T07:15:18.393Z,4.10
2017-08-09T07:17:46.619Z,3.27
2017-08-09T07:20:14.869Z,4.73
2017-08-09T07:22:43.335Z,6.97
2017-08-09T07:25:11.619Z,3.93
2017-08-09T07:27:39.908Z,4.50
2017-08-09T07:30:08.189Z,3.13
2017-08-09T07:32:36.449Z,4.00
2017-08-09T07:35:04.727Z,3.97
2017-08-09T07:37:33.023Z,3.63
2017-08-09T07:40:01.301Z,2.90
2017-08-09T07:42:29.561Z,2.90
2017-08-09T07:44:57.865Z,3.00
2017-08-09T07:47:26.112Z,6.70
2017-08-09T07:49:54.360Z,4.20
2017-08-09T07:52:23.038Z,3.53
2017-08-09T07:54:52.770Z,3.33
2017-08-09T07:57:22.265Z,3.33
2017-08-09T07:59:51.126Z,2.87
2017-08-09T08:02:20.610Z,3.00
2017-08-09T08:04:48.947Z,2.70
2017-08-09T08:07:17.798Z,3.40
2017-08-09T08:09:46.609Z,4.40
2017-08-09T08:12:15.275Z,3.40
2017-08-09T08:14:43.880Z,3.20
2017-08-09T08:17:12.451Z,5.67
2017-08-09T08:19:40.724Z,3.00
2017-08-09T08:22:09.016Z,2.63
2017-08-09T08:24:37.662Z,4.23
2017-08-09T08:27:05.965Z,2.50
2017-08-09T08:29:34.308Z,2.80
2017-08-09T08:32:02.621Z,2.80
2017-08-09T08:34:30.856Z,2.10
2017-08-09T08:36:59.229Z,1.97
2017-08-09T08:39:27.557Z,2.07
2017-08-09T08:41:55.869Z,1.90
2017-08-09T08:44:24.129Z,2.13
2017-08-09T08:46:52.429Z,2.40
2017-08-09T08:49:20.719Z,2.10
2017-08-09T08:51:49.003Z,2.40
2017-08-09T08:54:17.253Z,2.27
2017-08-09T08:56:45.661Z,2.20
2017-08-09T08:59:13.900Z,2.20
2017-08-09T09:01:43.766Z,2.10
2017-08-09T09:04:12.571Z,2.20
2017-08-09T09:06:40.925Z,3.30
2017-08-09T09:09:09.558Z,2.20
2017-08-09T09:11:38.104Z,2.63
2017-08-09T09:14:07.470Z,1.73
2017-08-09T09:16:35.869Z,1.63
2017-08-09T09:19:04.433Z,1.83
2017-08-09T09:21:32.979Z,2.77
2017-08-09T09:24:01.924Z,3.40
2017-08-09T09:26:30.240Z,2.63
2017-08-09T09:28:58.792Z,1.93
2017-08-09T09:31:27.383Z,2.20
2017-08-09T09:33:55.755Z,2.40
2017-08-09T09:36:23.990Z,2.63
2017-08-09T09:38:52.255Z,1.70
2017-08-09T09:41:20.552Z,2.40
2017-08-09T09:43:48.865Z,2.43
2017-08-09T09:46:17.152Z,2.30
2017-08-09T09:48:45.451Z,2.40
2017-08-09T09:51:13.768Z,2.47
2017-08-09T09:53:42.090Z,2.20
2017-08-09T09:56:10.417Z,2.00
2017-08-09T09:58:38.738Z,2.47
2017-08-09T10:01:08.002Z,2.57
2017-08-09T10:03:36.705Z,1.93
2017-08-09T10:06:04.983Z,2.10
2017-08-09T10:08:33.320Z,2.20
2017-08-09T10:11:01.627Z,1.90
2017-08-09T10:13:30.071Z,2.13
2017-08-09T10:15:58.312Z,1.80
2017-08-09T10:18:26.588Z,2.13
2017-08-09T10:20:56.305Z,6.60
2017-08-09T10:23:26.966Z,2.53
2017-08-09T10:25:55.762Z,2.10
2017-08-09T10:28:24.151Z,1.63
2017-08-09T10:30:54.410Z,1.77
2017-08-09T10:33:23.633Z,1.87
2017-08-09T10:35:52.612Z,2.93
2017-08-09T10:38:22.118Z,6.93
2017-08-09T10:40:50.484Z,2.10
2017-08-09T10:43:18.698Z,2.60
2017-08-09T10:45:50.089Z,2.50
2017-08-09T10:48:18.429Z,3.47
2017-08-09T10:50:46.701Z,4.00
2017-08-09T10:53:15.001Z,2.73
2017-08-09T10:55:43.239Z,2.50
2017-08-09T10:58:11.613Z,2.00
2017-08-09T11:00:39.872Z,1.87
2017-08-09T11:03:08.201Z,2.57
2017-08-09T11:05:37.341Z,2.20
2017-08-09T11:08:05.695Z,2.97
2017-08-09T11:10:34.010Z,1.87
2017-08-09T11:13:02.297Z,2.00
2017-08-09T11:15:30.553Z,1.30
2017-08-09T11:17:59.201Z,2.40
2017-08-09T11:20:27.425Z,1.70
2017-08-09T11:22:55.686Z,1.70
2017-08-09T11:25:23.957Z,1.73
2017-08-09T11:27:52.214Z,1.80
2017-08-09T11:30:20.482Z,1.80
2017-08-09T11:32:48.749Z,1.60
2017-08-09T11:35:17.074Z,2.40
2017-08-09T11:37:45.292Z,1.80
2017-08-09T11:40:13.563Z,1.63
2017-08-09T11:42:42.205Z,2.37
2017-08-09T11:45:10.960Z,1.93
2017-08-09T11:47:39.800Z,1.83
2017-08-09T11:50:08.730Z,1.90
2017-08-09T11:52:37.213Z,2.40
2017-08-09T11:55:05.445Z,2.63
2017-08-09T11:57:33.758Z,1.97
2017-08-09T12:00:02.169Z,1.97
2017-08-09T12:02:30.460Z,1.83
2017-08-09T12:04:58.705Z,1.77
2017-08-09T12:07:26.949Z,1.50
2017-08-09T12:09:55.184Z,1.40
2017-08-09T12:12:23.524Z,1.40
2017-08-09T12:14:51.811Z,1.93
2017-08-09T12:17:20.153Z,1.60
2017-08-09T12:19:48.398Z,1.30
2017-08-09T12:22:16.718Z,1.80
2017-08-09T12:24:45.037Z,1.50
2017-08-09T12:27:13.323Z,1.83
2017-08-09T12:29:41.633Z,1.73
2017-08-09T12:32:09.874Z,2.20
2017-08-09T12:34:38.194Z,1.70
2017-08-09T12:37:06.483Z,2.17
2017-08-09T12:39:34.774Z,1.80
2017-08-09T12:42:03.029Z,2.40
2017-08-09T12:44:31.307Z,1.63
2017-08-09T12:46:59.578Z,1.57
2017-08-09T12:49:27.855Z,1.73
2017-08-09T12:51:56.165Z,1.50
2017-08-09T12:54:24.422Z,1.80
2017-08-09T12:56:52.689Z,1.60
2017-08-09T12:59:20.986Z,2.60
2017-08-09T13:01:49.237Z,1.67
2017-08-09T13:04:17.494Z,4.80
2017-08-09T13:06:45.788Z,3.00
2017-08-09T13:09:14.553Z,1.80
2017-08-09T13:11:43.088Z,1.50
2017-08-09T13:14:11.432Z,2.63
2017-08-09T13:16:40.245Z,2.50
2017-08-09T13:19:08.890Z,2.40
2017-08-09T13:21:37.125Z,2.30
2017-08-09T13:24:05.408Z,1.87
2017-08-09T13:26:34.597Z,2.37
2017-08-09T13:29:02.844Z,1.90
2017-08-09T13:31:31.139Z,2.00
2017-08-09T13:33:59.461Z,2.13
2017-08-09T13:36:27.716Z,3.27
2017-08-09T13:38:55.978Z,3.50
2017-08-09T13:41:24.253Z,2.30
2017-08-09T13:43:52.537Z,1.60
2017-08-09T13:46:20.764Z,1.57
2017-08-09T13:48:49.006Z,1.83
2017-08-09T13:51:17.295Z,1.90
2017-08-09T13:53:45.530Z,1.60
2017-08-09T13:56:13.794Z,2.20
2017-08-09T13:58:42.675Z,1.97
2017-08-09T14:01:11.021Z,1.80
2017-08-09T14:03:39.286Z,2.17
2017-08-09T14:06:07.593Z,1.70
2017-08-09T14:08:35.845Z,1.60
2017-08-09T14:11:04.107Z,1.70
2017-08-09T14:13:32.396Z,2.20
2017-08-09T14:16:00.671Z,1.53
2017-08-09T14:18:28.902Z,1.87
2017-08-09T14:20:57.200Z,1.77
2017-08-09T14:23:25.582Z,2.00
2017-08-09T14:25:53.819Z,1.70
2017-08-09T14:28:22.116Z,1.60
2017-08-09T14:30:50.694Z,1.93
2017-08-09T14:33:18.991Z,2.40
2017-08-09T14:35:47.345Z,1.80
2017-08-09T14:38:15.606Z,1.87
2017-08-09T14:40:44.692Z,2.00
2017-08-09T14:43:12.930Z,3.07
2017-08-09T14:45:41.223Z,1.70
2017-08-09T14:48:09.469Z,1.50
2017-08-09T14:50:37.728Z,1.50
2017-08-09T14:53:06.039Z,1.80
2017-08-09T14:55:34.350Z,1.97
2017-08-09T14:58:02.583Z,2.00
2017-08-09T15:00:30.862Z,1.80
2017-08-09T15:02:59.150Z,1.30
2017-08-09T15:05:27.471Z,1.30
2017-08-09T15:07:55.957Z,1.60
2017-08-09T15:10:24.292Z,1.43
2017-08-09T15:12:53.411Z,1.70
2017-08-09T15:15:22.006Z,1.50
2017-08-09T15:17:51.638Z,1.70
2017-08-09T15:20:19.880Z,1.70
2017-08-09T15:22:48.191Z,1.97
2017-08-09T15:25:16.509Z,1.80
2017-08-09T15:27:44.878Z,1.97
2017-08-09T15:30:13.139Z,1.90
2017-08-09T15:32:42.507Z,2.30
2017-08-09T15:35:12.060Z,5.20
2017-08-09T15:37:40.375Z,4.30
2017-08-09T15:40:08.635Z,3.03
2017-08-09T15:42:38.155Z,1.60
2017-08-09T15:45:06.483Z,2.63
2017-08-09T15:47:34.765Z,1.77
2017-08-09T15:50:03.146Z,1.83
2017-08-09T15:52:31.468Z,1.77
2017-08-09T15:54:59.733Z,1.40
2017-08-09T15:57:29.122Z,1.50
2017-08-09T15:59:57.567Z,1.40
2017-08-09T16:02:25.902Z,1.70
2017-08-09T16:04:55.135Z,1.93
2017-08-09T16:07:23.475Z,1.90
2017-08-09T16:09:51.745Z,1.67
2017-08-09T16:12:20.416Z,1.60
2017-08-09T16:14:48.661Z,1.60
2017-08-09T16:17:16.962Z,1.40
2017-08-09T16:19:45.252Z,1.90
2017-08-09T16:22:13.536Z,1.50
2017-08-09T16:24:41.777Z,1.47
2017-08-09T16:27:10.043Z,1.40
2017-08-09T16:29:38.292Z,1.80
2017-08-09T16:32:06.622Z,1.80
2017-08-09T16:34:34.890Z,1.73
2017-08-09T16:37:03.202Z,1.23
2017-08-09T16:39:31.412Z,1.47
2017-08-09T16:41:59.690Z,1.63
2017-08-09T16:44:28.069Z,2.30
2017-08-09T16:46:56.326Z,2.30
2017-08-09T16:49:25.881Z,1.80
2017-08-09T16:51:54.201Z,1.53
2017-08-09T16:54:22.468Z,1.60
2017-08-09T16:56:50.748Z,1.33
2017-08-09T16:59:19.018Z,2.10
2017-08-09T17:01:47.332Z,2.20
2017-08-09T17:04:15.673Z,2.00
2017-08-09T17:06:43.934Z,1.73
2017-08-09T17:09:12.200Z,1.57
2017-08-09T17:11:40.437Z,3.10
2017-08-09T17:14:09.068Z,1.50
2017-08-09T17:16:37.301Z,1.33
2017-08-09T17:19:05.553Z,2.10
2017-08-09T17:21:33.792Z,1.70
2017-08-09T17:24:02.043Z,1.70
2017-08-09T17:26:31.833Z,1.53
2017-08-09T17:29:00.087Z,1.87
2017-08-09T17:31:28.345Z,1.70
2017-08-09T17:33:57.168Z,1.80
2017-08-09T17:36:25.491Z,2.10
2017-08-09T17:38:53.754Z,1.60
2017-08-09T17:41:22.036Z,1.97
2017-08-09T17:43:50.398Z,1.50
2017-08-09T17:46:18.641Z,2.13
2017-08-09T17:48:47.021Z,1.50
2017-08-09T17:51:15.269Z,1.90
2017-08-09T17:53:44.515Z,1.60
2017-08-09T17:56:12.765Z,2.07
2017-08-09T17:58:41.139Z,1.77
2017-08-09T18:01:09.425Z,2.07
2017-08-09T18:03:37.828Z,1.97
2017-08-09T18:06:06.210Z,1.90
2017-08-09T18:08:34.431Z,2.00
2017-08-09T18:11:02.686Z,1.87
2017-08-09T18:13:31.174Z,2.40
2017-08-09T18:15:59.398Z,2.70
2017-08-09T18:18:27.668Z,2.47
2017-08-09T18:20:56.037Z,3.30
2017-08-09T18:23:24.275Z,3.17
2017-08-09T18:25:52.621Z,2.60
2017-08-09T18:28:21.258Z,2.80
2017-08-09T18:30:50.263Z,2.30
2017-08-09T18:33:18.570Z,2.13
2017-08-09T18:35:46.911Z,2.93
2017-08-09T18:38:17.267Z,2.53
2017-08-09T18:40:45.766Z,2.30
2017-08-09T18:43:14.103Z,2.20
2017-08-09T18:45:42.415Z,2.37
2017-08-09T18:48:11.588Z,2.10
2017-08-09T18:50:41.535Z,1.87
2017-08-09T18:53:09.907Z,2.20
2017-08-09T18:55:38.230Z,2.00
2017-08-09T18:58:08.107Z,2.20
2017-08-09T19:00:36.445Z,2.10
2017-08-09T19:03:04.777Z,2.50
2017-08-09T19:05:33.030Z,2.93
2017-08-09T19:08:01.535Z,2.90
2017-08-09T19:10:30.632Z,3.07
2017-08-09T19:12:59.056Z,3.27
2017-08-09T19:15:27.476Z,2.53
2017-08-09T19:17:55.832Z,3.10
2017-08-09T19:20:24.501Z,3.23
2017-08-09T19:22:52.758Z,2.80
2017-08-09T19:25:21.033Z,2.77
2017-08-09T19:27:50.521Z,2.33
2017-08-09T19:30:18.749Z,2.37
2017-08-09T19:32:47.084Z,2.03
2017-08-09T19:35:16.616Z,1.93
2017-08-09T19:37:44.871Z,1.90
2017-08-09T19:40:13.106Z,2.00
2017-08-09T19:42:41.389Z,2.00
2017-08-09T19:45:09.653Z,2.00
2017-08-09T19:47:38.297Z,2.30
2017-08-09T19:50:07.675Z,2.90
2017-08-09T19:52:36.124Z,3.20
2017-08-09T19:55:05.761Z,2.43
2017-08-09T19:57:44.811Z,2.70
2017-08-09T20:00:13.777Z,2.13
2017-08-09T20:02:45.129Z,2.13
2017-08-09T20:05:15.988Z,2.10
2017-08-09T20:07:50.341Z,2.70
2017-08-09T20:10:19.452Z,2.50
2017-08-09T20:12:48.854Z,2.63
2017-08-09T20:15:20.321Z,2.10
2017-08-09T20:17:51.461Z,2.20
2017-08-09T20:20:20.173Z,2.37
2017-08-09T20:22:48.579Z,2.57
2017-08-09T20:25:16.889Z,2.20
2017-08-09T20:27:45.183Z,2.43
2017-08-09T20:30:15.938Z,2.27
2017-08-09T20:32:44.355Z,2.43
2017-08-09T20:35:13.078Z,2.13
2017-08-09T20:37:42.233Z,2.60
2017-08-09T20:40:11.005Z,2.40
2017-08-09T20:42:40.482Z,2.10
2017-08-09T20:45:08.793Z,2.47
2017-08-09T20:47:37.510Z,2.43
2017-08-09T20:50:06.828Z,2.50
2017-08-09T20:52:35.289Z,2.37
2017-08-09T20:55:03.630Z,2.50
2017-08-09T20:57:32.371Z,2.50
2017-08-09T21:00:02.182Z,2.07
2017-08-09T21:02:31.351Z,2.43
2017-08-09T21:05:00.786Z,2.40
2017-08-09T21:07:30.199Z,2.70
2017-08-09T21:09:58.960Z,2.93
2017-08-09T21:12:27.737Z,3.67
2017-08-09T21:14:56.380Z,3.27
2017-08-09T21:17:25.465Z,2.90
2017-08-09T21:19:54.219Z,3.77
2017-08-09T21:22:22.839Z,3.30
2017-08-09T21:24:51.363Z,3.73
2017-08-09T21:27:19.859Z,3.73
2017-08-09T21:29:50.586Z,4.53
2017-08-09T21:32:18.990Z,4.63
2017-08-09T21:34:49.597Z,3.70
2017-08-09T21:37:19.832Z,3.60
2017-08-09T21:39:49.370Z,4.10
2017-08-09T21:42:19.001Z,3.80
2017-08-09T21:44:47.373Z,4.90
2017-08-09T21:47:15.814Z,7.57
2017-08-09T21:49:44.213Z,6.60
2017-08-09T21:52:14.667Z,5.30
2017-08-09T21:54:43.732Z,4.23
2017-08-09T21:57:13.008Z,5.50
2017-08-09T21:59:41.571Z,5.23
2017-08-09T22:02:10.262Z,5.40
2017-08-09T22:04:38.739Z,4.40
2017-08-09T22:07:12.192Z,5.23
2017-08-09T22:09:40.975Z,4.97
2017-08-09T22:12:09.626Z,4.40
2017-08-09T22:14:37.882Z,4.77
2017-08-09T22:17:06.338Z,5.00
2017-08-09T22:19:35.103Z,4.53
2017-08-09T22:22:03.626Z,4.07
2017-08-09T22:24:32.239Z,3.40
2017-08-09T22:27:00.578Z,2.73
2017-08-09T22:29:31.004Z,3.53
2017-08-09T22:32:02.043Z,3.73
2017-08-09T22:34:31.041Z,4.30
2017-08-09T22:37:00.606Z,4.20
2017-08-09T22:39:28.991Z,3.43
2017-08-09T22:41:59.924Z,2.73
2017-08-09T22:44:30.983Z,3.17
2017-08-09T22:46:59.464Z,3.43
2017-08-09T22:49:27.897Z,4.50
2017-08-09T22:51:59.406Z,4.20
2017-08-09T22:54:31.271Z,4.00
2017-08-09T22:57:00.065Z,4.03
2017-08-09T22:59:28.441Z,4.23
2017-08-09T23:01:56.721Z,3.47
2017-08-09T23:04:24.978Z,3.10
2017-08-09T23:06:53.282Z,2.70
2017-08-09T23:09:22.594Z,3.40
2017-08-09T23:11:51.879Z,4.00
2017-08-09T23:14:21.027Z,3.63
2017-08-09T23:16:49.739Z,3.97
2017-08-09T23:19:18.255Z,3.70
2017-08-09T23:21:46.615Z,3.80
2017-08-09T23:24:15.914Z,3.40
2017-08-09T23:26:44.765Z,3.57
2017-08-09T23:29:13.719Z,4.00
2017-08-09T23:31:43.283Z,3.23
2017-08-09T23:34:11.564Z,3.30
2017-08-09T23:36:42.509Z,3.10
2017-08-09T23:39:11.364Z,2.90
2017-08-09T23:41:39.810Z,2.93
2017-08-09T23:44:09.807Z,2.93
2017-08-09T23:46:38.192Z,2.93
2017-08-09T23:49:07.785Z,2.83
2017-08-09T23:51:36.256Z,3.70
2017-08-09T23:54:07.003Z,3.27
2017-08-09T23:56:35.292Z,3.23
2017-08-09T23:59:07.144Z,4.13
